createdAt,value
2018-04-08T00:00:41.974Z,8.41
2018-04-08T00:01:49.990Z,8.41
2018-04-08T00:02:58.063Z,8.42
2018-04-08T00:04:06.114Z,8.36
2018-04-08T00:05:14.192Z,8.31
2018-04-08T00:06:22.527Z,8.18
2018-04-08T00:07:30.276Z,8.13
2018-04-08T00:08:38.368Z,8.13
2018-04-08T00:09:46.428Z,8.09
2018-04-08T00:10:54.487Z,7.98
2018-04-08T00:12:02.557Z,7.96
2018-04-08T00:13:10.631Z,7.88
2018-04-08T00:14:18.689Z,7.81
2018-04-08T00:15:26.749Z,7.85
2018-04-08T00:16:34.814Z,7.70
2018-04-08T00:17:42.871Z,7.77
2018-04-08T00:18:50.907Z,7.72
2018-04-08T00:19:58.991Z,7.72
2018-04-08T00:21:07.047Z,7.70
2018-04-08T00:22:15.103Z,7.69
2018-04-08T00:23:26.980Z,7.69
2018-04-08T00:24:35.199Z,7.75
2018-04-08T00:25:41.365Z,7.67
2018-04-08T00:26:50.615Z,7.70
2018-04-08T00:27:58.824Z,7.70
2018-04-08T00:29:06.891Z,7.69
2018-04-08T00:30:15.150Z,7.66
2018-04-08T00:31:23.152Z,7.58
2018-04-08T00:32:31.121Z,7.62
2018-04-08T00:33:35.724Z,7.62
2018-04-08T00:34:43.782Z,7.58
2018-04-08T00:35:51.856Z,7.66
2018-04-08T00:36:59.903Z,7.77
2018-04-08T00:38:07.969Z,7.64
2018-04-08T00:39:16.030Z,7.67
2018-04-08T00:40:24.083Z,7.67
2018-04-08T00:41:32.155Z,7.81
2018-04-08T00:42:40.223Z,7.84
2018-04-08T00:43:48.273Z,7.90
2018-04-08T00:44:57.329Z,7.91
2018-04-08T00:46:04.412Z,7.87
2018-04-08T00:47:12.454Z,7.84
2018-04-08T00:48:20.504Z,7.83
2018-04-08T00:49:28.589Z,7.84
2018-04-08T00:50:36.650Z,7.83
2018-04-08T00:51:44.702Z,7.85
2018-04-08T00:52:52.763Z,7.72
2018-04-08T00:54:00.885Z,7.70
2018-04-08T00:55:08.875Z,7.70
2018-04-08T00:56:16.954Z,7.78
2018-04-08T00:57:24.997Z,7.78
2018-04-08T00:58:33.047Z,7.84
2018-04-08T00:59:41.116Z,7.83
2018-04-08T01:00:49.190Z,7.96
2018-04-08T01:01:57.244Z,7.90
2018-04-08T01:03:05.320Z,7.90
2018-04-08T01:04:13.366Z,7.93
2018-04-08T01:05:21.438Z,7.83
2018-04-08T01:06:29.498Z,7.78
2018-04-08T01:07:37.565Z,7.70
2018-04-08T01:08:45.616Z,7.74
2018-04-08T01:09:53.688Z,7.62
2018-04-08T01:11:01.738Z,7.59
2018-04-08T01:12:09.816Z,7.43
2018-04-08T01:13:17.862Z,7.50
2018-04-08T01:14:25.928Z,7.44
2018-04-08T01:15:33.978Z,7.40
2018-04-08T01:16:42.055Z,7.44
2018-04-08T01:17:50.111Z,7.43
2018-04-08T01:18:58.168Z,7.46
2018-04-08T01:20:06.230Z,7.44
2018-04-08T01:21:14.284Z,7.44
2018-04-08T01:22:22.352Z,7.51
2018-04-08T01:23:30.407Z,7.44
2018-04-08T01:24:38.503Z,7.53
2018-04-08T01:25:46.537Z,7.48
2018-04-08T01:26:54.590Z,7.53
2018-04-08T01:28:02.649Z,7.50
2018-04-08T01:29:10.739Z,7.46
2018-04-08T01:30:18.773Z,7.47
2018-04-08T01:31:26.846Z,7.48
2018-04-08T01:32:34.892Z,7.36
2018-04-08T01:33:42.964Z,7.48
2018-04-08T01:34:51.004Z,7.40
2018-04-08T01:35:59.078Z,7.41
2018-04-08T01:37:07.135Z,7.40
2018-04-08T01:38:15.204Z,7.39
2018-04-08T01:39:23.258Z,7.37
2018-04-08T01:40:31.334Z,7.31
2018-04-08T01:41:39.402Z,7.26
2018-04-08T01:42:47.451Z,7.31
2018-04-08T01:43:55.520Z,7.22
2018-04-08T01:45:03.574Z,7.18
2018-04-08T01:46:11.641Z,7.18
2018-04-08T01:47:19.724Z,7.15
2018-04-08T01:48:27.755Z,7.13
2018-04-08T01:49:35.820Z,7.15
2018-04-08T01:50:43.891Z,7.05
2018-04-08T01:51:51.946Z,6.97
2018-04-08T01:52:59.997Z,7.00
2018-04-08T01:54:08.065Z,6.96
2018-04-08T01:55:16.125Z,6.97
2018-04-08T01:56:24.187Z,6.89
2018-04-08T01:57:32.237Z,6.82
2018-04-08T01:58:40.302Z,6.77
2018-04-08T01:59:48.387Z,6.74
2018-04-08T02:00:56.431Z,6.71
2018-04-08T02:02:04.496Z,6.74
2018-04-08T02:03:12.560Z,6.75
2018-04-08T02:04:20.613Z,6.70
2018-04-08T02:05:28.680Z,6.67
2018-04-08T02:06:36.735Z,6.64
2018-04-08T02:07:44.798Z,6.65
2018-04-08T02:08:52.850Z,6.70
2018-04-08T02:10:00.918Z,6.67
2018-04-08T02:11:08.977Z,6.67
2018-04-08T02:12:17.063Z,6.62
2018-04-08T02:13:25.094Z,6.70
2018-04-08T02:14:33.144Z,6.64
2018-04-08T02:15:41.225Z,6.62
2018-04-08T02:16:49.285Z,6.65
2018-04-08T02:17:57.333Z,6.65
2018-04-08T02:19:05.400Z,6.68
2018-04-08T02:20:13.455Z,6.64
2018-04-08T02:21:21.511Z,6.59
2018-04-08T02:22:29.599Z,6.50
2018-04-08T02:23:37.638Z,6.49
2018-04-08T02:24:46.341Z,6.52
2018-04-08T02:25:53.764Z,6.50
2018-04-08T02:27:01.821Z,6.52
2018-04-08T02:28:09.876Z,6.46
2018-04-08T02:29:17.939Z,6.47
2018-04-08T02:30:26.007Z,6.38
2018-04-08T02:31:34.045Z,6.49
2018-04-08T02:32:42.126Z,6.49
2018-04-08T02:33:50.173Z,6.46
2018-04-08T02:34:58.248Z,6.38
2018-04-08T02:36:06.324Z,6.49
2018-04-08T02:37:14.366Z,6.49
2018-04-08T02:38:22.476Z,6.47
2018-04-08T02:39:30.492Z,6.49
2018-04-08T02:40:38.547Z,6.53
2018-04-08T02:41:46.603Z,6.53
2018-04-08T02:42:54.670Z,6.56
2018-04-08T02:44:02.724Z,6.52
2018-04-08T02:45:10.785Z,6.49
2018-04-08T02:46:18.864Z,6.50
2018-04-08T02:47:26.910Z,6.41
2018-04-08T02:48:34.990Z,6.41
2018-04-08T02:49:43.035Z,6.36
2018-04-08T02:50:51.096Z,6.36
2018-04-08T02:51:59.141Z,6.41
2018-04-08T02:53:07.222Z,6.28
2018-04-08T02:54:15.271Z,6.34
2018-04-08T02:55:23.326Z,6.20
2018-04-08T02:56:31.401Z,6.31
2018-04-08T02:57:39.459Z,6.29
2018-04-08T02:58:47.519Z,6.25
2018-04-08T02:59:55.576Z,6.22
2018-04-08T03:01:03.639Z,6.25
2018-04-08T03:02:11.701Z,6.15
2018-04-08T03:03:19.751Z,5.98
2018-04-08T03:04:27.822Z,6.05
2018-04-08T03:05:35.893Z,6.15
2018-04-08T03:06:43.933Z,6.01
2018-04-08T03:07:52.015Z,6.12
2018-04-08T03:09:00.063Z,6.05
2018-04-08T03:10:08.123Z,6.07
2018-04-08T03:11:16.192Z,6.01
2018-04-08T03:12:24.248Z,5.99
2018-04-08T03:13:32.305Z,6.01
2018-04-08T03:14:40.360Z,5.94
2018-04-08T03:15:48.429Z,5.90
2018-04-08T03:16:56.488Z,5.94
2018-04-08T03:18:04.553Z,5.83
2018-04-08T03:19:12.611Z,5.94
2018-04-08T03:20:20.641Z,5.92
2018-04-08T03:21:28.733Z,5.98
2018-04-08T03:22:36.796Z,6.05
2018-04-08T03:23:44.849Z,6.05
2018-04-08T03:24:52.905Z,6.22
2018-04-08T03:26:00.952Z,6.13
2018-04-08T03:27:09.023Z,6.19
2018-04-08T03:28:17.067Z,6.17
2018-04-08T03:29:25.787Z,6.22
2018-04-08T03:30:33.214Z,6.25
2018-04-08T03:31:41.281Z,6.31
2018-04-08T03:32:49.315Z,6.32
2018-04-08T03:33:57.398Z,6.32
2018-04-08T03:35:05.450Z,6.41
2018-04-08T03:36:13.502Z,6.31
2018-04-08T03:37:21.566Z,6.34
2018-04-08T03:38:29.624Z,6.31
2018-04-08T03:39:37.679Z,6.31
2018-04-08T03:40:45.753Z,6.25
2018-04-08T03:41:53.811Z,6.28
2018-04-08T03:43:01.860Z,6.22
2018-04-08T03:44:09.909Z,6.22
2018-04-08T03:45:17.996Z,6.29
2018-04-08T03:46:26.041Z,6.25
2018-04-08T03:47:34.100Z,6.25
2018-04-08T03:48:42.167Z,6.22
2018-04-08T03:49:50.219Z,6.16
2018-04-08T03:50:58.297Z,6.19
2018-04-08T03:52:06.343Z,6.22
2018-04-08T03:53:14.411Z,6.29
2018-04-08T03:54:22.471Z,6.22
2018-04-08T03:55:30.509Z,6.22
2018-04-08T03:56:38.579Z,6.07
2018-04-08T03:57:46.658Z,6.06
2018-04-08T03:58:54.707Z,5.95
2018-04-08T04:00:02.750Z,5.99
2018-04-08T04:01:10.829Z,5.81
2018-04-08T04:02:18.885Z,5.81
2018-04-08T04:03:26.955Z,5.74
2018-04-08T04:04:34.988Z,5.74
2018-04-08T04:05:43.062Z,5.73
2018-04-08T04:06:51.134Z,5.70
2018-04-08T04:07:59.439Z,5.56
2018-04-08T04:09:07.261Z,5.58
2018-04-08T04:10:15.328Z,5.58
2018-04-08T04:11:23.404Z,5.59
2018-04-08T04:12:31.414Z,5.59
2018-04-08T04:13:39.489Z,5.41
2018-04-08T04:14:47.562Z,5.43
2018-04-08T04:15:55.619Z,5.34
2018-04-08T04:17:03.674Z,5.46
2018-04-08T04:18:11.726Z,5.49
2018-04-08T04:19:19.804Z,5.51
2018-04-08T04:20:28.410Z,5.52
2018-04-08T04:21:35.897Z,5.51
2018-04-08T04:22:43.983Z,5.59
2018-04-08T04:23:52.100Z,5.62
2018-04-08T04:25:00.091Z,5.59
2018-04-08T04:26:08.149Z,5.56
2018-04-08T04:27:16.211Z,5.52
2018-04-08T04:28:24.271Z,5.56
2018-04-08T04:29:32.326Z,5.54
2018-04-08T04:30:40.411Z,5.70
2018-04-08T04:31:48.464Z,5.80
2018-04-08T04:32:56.514Z,5.80
2018-04-08T04:34:04.584Z,5.84
2018-04-08T04:35:12.639Z,5.84
2018-04-08T04:36:20.668Z,5.76
2018-04-08T04:37:28.781Z,5.67
2018-04-08T04:38:36.821Z,5.74
2018-04-08T04:39:44.868Z,5.59
2018-04-08T04:40:52.932Z,5.58
2018-04-08T04:42:01.011Z,5.64
2018-04-08T04:43:09.060Z,5.51
2018-04-08T04:44:17.111Z,5.51
2018-04-08T04:45:25.197Z,5.62
2018-04-08T04:46:33.231Z,5.55
2018-04-08T04:47:41.296Z,5.56
2018-04-08T04:48:49.367Z,5.73
2018-04-08T04:49:57.422Z,5.73
2018-04-08T04:51:05.469Z,5.79
2018-04-08T04:52:13.528Z,5.77
2018-04-08T04:53:21.600Z,5.87
2018-04-08T04:54:29.668Z,5.90
2018-04-08T04:55:37.719Z,5.92
2018-04-08T04:56:45.787Z,5.84
2018-04-08T04:57:53.846Z,5.91
2018-04-08T04:59:01.907Z,5.88
2018-04-08T05:00:10.000Z,5.79
2018-04-08T05:01:18.024Z,5.91
2018-04-08T05:02:26.099Z,5.80
2018-04-08T05:03:35.154Z,5.92
2018-04-08T05:04:42.199Z,5.91
2018-04-08T05:05:50.262Z,5.97
2018-04-08T05:06:58.332Z,5.81
2018-04-08T05:08:06.383Z,5.81
2018-04-08T05:09:14.439Z,5.76
2018-04-08T05:10:22.508Z,5.79
2018-04-08T05:11:30.563Z,5.76
2018-04-08T05:12:38.628Z,5.70
2018-04-08T05:13:46.698Z,5.65
2018-04-08T05:14:54.760Z,5.70
2018-04-08T05:16:02.926Z,5.69
2018-04-08T05:17:10.861Z,5.79
2018-04-08T05:18:18.967Z,5.74
2018-04-08T05:19:26.994Z,5.74
2018-04-08T05:20:35.071Z,5.76
2018-04-08T05:21:43.101Z,5.74
2018-04-08T05:22:51.190Z,5.81
2018-04-08T05:23:59.229Z,6.01
2018-04-08T05:25:07.309Z,5.98
2018-04-08T05:26:15.363Z,6.01
2018-04-08T05:27:23.417Z,6.13
2018-04-08T05:28:31.488Z,6.26
2018-04-08T05:29:39.549Z,6.31
2018-04-08T05:30:47.598Z,6.39
2018-04-08T05:31:55.664Z,6.36
2018-04-08T05:33:03.714Z,6.41
2018-04-08T05:34:11.785Z,6.46
2018-04-08T05:35:19.849Z,6.46
2018-04-08T05:36:27.911Z,6.50
2018-04-08T05:37:35.969Z,6.60
2018-04-08T05:38:44.024Z,6.65
2018-04-08T05:39:52.098Z,6.57
2018-04-08T05:41:00.167Z,6.65
2018-04-08T05:42:08.210Z,6.60
2018-04-08T05:43:16.285Z,6.71
2018-04-08T05:44:24.329Z,6.77
2018-04-08T05:45:32.395Z,6.89
2018-04-08T05:46:40.437Z,6.95
2018-04-08T05:47:48.527Z,6.87
2018-04-08T05:48:56.595Z,7.10
2018-04-08T05:50:04.648Z,7.18
2018-04-08T05:51:12.742Z,7.32
2018-04-08T05:52:20.768Z,7.36
2018-04-08T05:53:28.834Z,7.44
2018-04-08T05:54:36.853Z,7.58
2018-04-08T05:55:44.953Z,7.78
2018-04-08T05:56:53.025Z,7.98
2018-04-08T05:58:01.854Z,8.13
2018-04-08T05:59:09.138Z,8.20
2018-04-08T06:00:17.193Z,8.21
2018-04-08T06:01:25.253Z,8.34
2018-04-08T06:02:33.690Z,8.44
2018-04-08T06:03:41.387Z,8.42
2018-04-08T06:04:49.440Z,8.57
2018-04-08T06:05:57.496Z,8.63
2018-04-08T06:07:05.558Z,8.74
2018-04-08T06:08:13.873Z,8.82
2018-04-08T06:09:21.844Z,8.93
2018-04-08T06:10:30.107Z,8.99
2018-04-08T06:11:38.367Z,9.29
2018-04-08T06:12:46.068Z,9.73
2018-04-08T06:13:54.364Z,10.00
2018-04-08T06:15:02.006Z,10.00
2018-04-08T06:16:10.140Z,9.94
2018-04-08T06:17:18.143Z,10.00
2018-04-08T06:18:26.205Z,10.10
2018-04-08T06:19:34.264Z,10.18
2018-04-08T06:20:42.329Z,10.21
2018-04-08T06:21:50.391Z,10.33
2018-04-08T06:22:58.443Z,10.43
2018-04-08T06:24:06.516Z,10.61
2018-04-08T06:25:14.575Z,10.69
2018-04-08T06:26:22.644Z,11.00
2018-04-08T06:27:31.276Z,11.22
2018-04-08T06:28:38.777Z,11.45
2018-04-08T06:29:47.386Z,11.74
2018-04-08T06:30:54.904Z,12.08
2018-04-08T06:32:03.402Z,12.23
2018-04-08T06:33:11.053Z,12.39
2018-04-08T06:34:19.101Z,12.62
2018-04-08T06:35:27.167Z,12.90
2018-04-08T06:36:35.221Z,13.17
2018-04-08T06:37:43.348Z,13.13
2018-04-08T06:38:51.358Z,13.16
2018-04-08T06:39:59.424Z,13.13
2018-04-08T06:41:07.489Z,13.37
2018-04-08T06:42:15.538Z,13.42
2018-04-08T06:43:23.638Z,13.36
2018-04-08T06:44:31.691Z,13.16
2018-04-08T06:45:39.777Z,13.24
2018-04-08T06:46:47.822Z,13.11
2018-04-08T06:47:55.903Z,13.05
2018-04-08T06:49:03.960Z,12.88
2018-04-08T06:50:12.023Z,12.88
2018-04-08T06:51:20.109Z,13.03
2018-04-08T06:52:28.163Z,13.26
2018-04-08T06:53:36.214Z,13.55
2018-04-08T06:54:44.289Z,13.52
2018-04-08T06:55:52.360Z,13.55
2018-04-08T06:57:00.427Z,13.79
2018-04-08T06:58:08.477Z,14.19
2018-04-08T06:59:16.559Z,14.43
2018-04-08T07:00:24.634Z,14.44
2018-04-08T07:01:32.702Z,14.45
2018-04-08T07:02:40.760Z,14.51
2018-04-08T07:03:48.814Z,14.41
2018-04-08T07:04:56.903Z,14.40
2018-04-08T07:06:04.973Z,14.96
2018-04-08T07:07:13.054Z,15.25
2018-04-08T07:08:21.081Z,15.08
2018-04-08T07:09:29.154Z,14.82
2018-04-08T07:10:37.204Z,14.51
2018-04-08T07:11:45.294Z,14.43
2018-04-08T07:12:53.379Z,14.12
2018-04-08T07:14:01.414Z,14.03
2018-04-08T07:15:09.514Z,13.86
2018-04-08T07:16:17.593Z,13.79
2018-04-08T07:17:25.653Z,13.83
2018-04-08T07:18:33.816Z,13.89
2018-04-08T07:19:41.784Z,14.34
2018-04-08T07:20:49.823Z,14.93
2018-04-08T07:21:57.901Z,15.43
2018-04-08T07:23:05.960Z,15.52
2018-04-08T07:24:14.026Z,15.60
2018-04-08T07:25:22.126Z,15.76
2018-04-08T07:26:30.233Z,15.98
2018-04-08T07:27:38.292Z,16.18
2018-04-08T07:28:46.339Z,16.40
2018-04-08T07:29:54.417Z,16.44
2018-04-08T07:31:02.485Z,16.47
2018-04-08T07:32:10.519Z,16.54
2018-04-08T07:33:18.699Z,16.66
2018-04-08T07:34:26.654Z,16.43
2018-04-08T07:35:34.764Z,16.31
2018-04-08T07:36:42.819Z,16.32
2018-04-08T07:37:50.889Z,16.39
2018-04-08T07:38:58.968Z,16.50
2018-04-08T07:40:07.039Z,16.61
2018-04-08T07:41:15.122Z,16.74
2018-04-08T07:42:23.169Z,16.82
2018-04-08T07:43:31.255Z,16.89
2018-04-08T07:44:39.336Z,16.54
2018-04-08T07:45:47.375Z,16.41
2018-04-08T07:46:56.053Z,16.36
2018-04-08T07:48:03.532Z,16.13
2018-04-08T07:49:11.590Z,16.31
2018-04-08T07:50:19.681Z,16.31
2018-04-08T07:51:27.732Z,16.24
2018-04-08T07:52:35.801Z,16.21
2018-04-08T07:53:43.887Z,16.17
2018-04-08T07:54:51.941Z,16.03
2018-04-08T07:59:55.924Z,16.03
2018-04-08T08:04:42.361Z,16.03
2018-04-08T08:05:06.760Z,16.24
2018-04-08T08:06:12.727Z,16.34
2018-04-08T08:07:20.714Z,16.31
2018-04-08T08:08:28.784Z,16.43
2018-04-08T08:09:36.884Z,16.50
2018-04-08T08:10:44.945Z,16.59
2018-04-08T08:11:52.992Z,16.72
2018-04-08T08:13:01.076Z,16.73
2018-04-08T08:14:09.156Z,16.79
2018-04-08T08:15:17.230Z,16.68
2018-04-08T08:16:25.274Z,16.76
2018-04-08T08:17:33.382Z,16.74
2018-04-08T08:18:41.418Z,16.68
2018-04-08T08:19:49.570Z,16.77
2018-04-08T08:20:57.582Z,16.80
2018-04-08T08:22:05.627Z,16.83
2018-04-08T08:23:13.719Z,16.83
2018-04-08T08:24:21.777Z,16.97
2018-04-08T08:25:29.881Z,17.13
2018-04-08T08:26:37.914Z,17.41
2018-04-08T08:27:45.979Z,17.71
2018-04-08T08:28:54.113Z,17.68
2018-04-08T08:30:02.146Z,17.80
2018-04-08T08:31:10.197Z,17.98
2018-04-08T08:32:18.299Z,18.00
2018-04-08T08:33:26.566Z,18.09
2018-04-08T08:34:34.411Z,18.12
2018-04-08T08:35:42.475Z,18.31
2018-04-08T08:36:50.591Z,18.52
2018-04-08T08:37:58.628Z,18.73
2018-04-08T08:39:06.710Z,18.96
2018-04-08T08:40:14.782Z,19.11
2018-04-08T08:41:22.849Z,19.15
2018-04-08T08:42:30.915Z,19.37
2018-04-08T08:43:39.003Z,19.63
2018-04-08T08:44:47.080Z,19.62
2018-04-08T08:45:55.149Z,19.62
2018-04-08T08:47:03.225Z,19.77
2018-04-08T08:48:11.292Z,19.74
2018-04-08T08:49:19.354Z,19.66
2018-04-08T08:50:27.429Z,19.49
2018-04-08T08:51:35.503Z,19.30
2018-04-08T08:52:43.580Z,19.16
2018-04-08T08:53:51.706Z,19.12
2018-04-08T08:54:59.816Z,18.86
2018-04-08T08:56:07.806Z,18.70
2018-04-08T08:57:15.870Z,18.68
2018-04-08T08:58:23.929Z,18.45
2018-04-08T08:59:32.063Z,18.49
2018-04-08T09:00:40.086Z,18.41
2018-04-08T09:01:48.168Z,18.45
2018-04-08T09:02:56.232Z,18.46
2018-04-08T09:04:04.314Z,18.49
2018-04-08T09:05:12.362Z,18.24
2018-04-08T09:06:20.438Z,18.34
2018-04-08T09:07:28.516Z,18.39
2018-04-08T09:08:36.588Z,18.19
2018-04-08T09:09:44.669Z,18.16
2018-04-08T09:10:52.739Z,17.97
2018-04-08T09:12:00.823Z,18.03
2018-04-08T09:13:08.892Z,18.03
2018-04-08T09:14:16.952Z,18.02
2018-04-08T09:15:25.005Z,17.94
2018-04-08T09:16:33.085Z,18.00
2018-04-08T09:17:41.153Z,18.09
2018-04-08T09:18:49.224Z,18.05
2018-04-08T09:19:57.307Z,18.09
2018-04-08T09:21:05.386Z,18.23
2018-04-08T09:22:13.450Z,18.28
2018-04-08T09:23:21.512Z,18.51
2018-04-08T09:24:29.597Z,18.52
2018-04-08T09:25:37.665Z,18.71
2018-04-08T09:26:45.756Z,18.71
2018-04-08T09:27:53.785Z,18.71
2018-04-08T09:29:01.852Z,18.82
2018-04-08T09:30:09.926Z,18.85
2018-04-08T09:31:18.013Z,18.92
2018-04-08T09:32:26.071Z,18.98
2018-04-08T09:33:34.128Z,18.88
2018-04-08T09:34:42.190Z,18.92
2018-04-08T09:35:50.273Z,18.91
2018-04-08T09:36:58.333Z,19.00
2018-04-08T09:38:06.420Z,19.11
2018-04-08T09:39:14.469Z,19.29
2018-04-08T09:40:22.565Z,19.27
2018-04-08T09:41:30.612Z,19.29
2018-04-08T09:42:38.684Z,19.29
2018-04-08T09:43:46.760Z,19.34
2018-04-08T09:44:54.830Z,19.42
2018-04-08T09:46:02.909Z,19.37
2018-04-08T09:47:10.987Z,19.38
2018-04-08T09:48:19.042Z,19.30
2018-04-08T09:49:27.134Z,19.29
2018-04-08T09:50:35.202Z,19.24
2018-04-08T09:51:43.249Z,19.44
2018-04-08T09:52:51.317Z,19.56
2018-04-08T09:53:59.407Z,19.49
2018-04-08T09:55:07.501Z,19.64
2018-04-08T09:56:15.541Z,19.71
2018-04-08T09:57:23.614Z,19.75
2018-04-08T09:58:31.669Z,19.67
2018-04-08T09:59:39.758Z,19.63
2018-04-08T10:00:47.821Z,19.66
2018-04-08T10:01:55.890Z,19.71
2018-04-08T10:03:03.973Z,19.66
2018-04-08T10:04:12.022Z,19.62
2018-04-08T10:05:20.092Z,19.72
2018-04-08T10:06:28.203Z,19.72
2018-04-08T10:07:36.229Z,19.66
2018-04-08T10:08:44.307Z,19.75
2018-04-08T10:09:52.371Z,19.72
2018-04-08T10:11:00.455Z,19.66
2018-04-08T10:12:08.515Z,19.66
2018-04-08T10:13:16.597Z,19.70
2018-04-08T10:14:24.664Z,19.78
2018-04-08T10:15:32.719Z,19.90
2018-04-08T10:16:40.788Z,20.10
2018-04-08T10:17:48.864Z,20.12
2018-04-08T10:18:56.929Z,20.18
2018-04-08T10:20:05.021Z,20.24
2018-04-08T10:21:13.077Z,20.48
2018-04-08T10:22:21.133Z,20.42
2018-04-08T10:23:29.203Z,20.49
2018-04-08T10:24:37.282Z,20.67
2018-04-08T10:25:45.343Z,20.74
2018-04-08T10:26:53.425Z,20.64
2018-04-08T10:28:01.507Z,20.49
2018-04-08T10:29:09.708Z,20.59
2018-04-08T10:30:17.662Z,20.52
2018-04-08T10:31:25.705Z,20.46
2018-04-08T10:32:33.780Z,20.52
2018-04-08T10:33:41.860Z,20.74
2018-04-08T10:34:49.933Z,20.63
2018-04-08T10:35:58.018Z,20.75
2018-04-08T10:37:06.060Z,20.90
2018-04-08T10:38:14.125Z,20.92
2018-04-08T10:39:22.206Z,21.04
2018-04-08T10:40:30.252Z,21.01
2018-04-08T10:41:38.338Z,21.10
2018-04-08T10:42:46.415Z,21.14
2018-04-08T10:43:54.480Z,21.13
2018-04-08T10:45:02.554Z,21.20
2018-04-08T10:46:10.637Z,21.14
2018-04-08T10:47:18.693Z,21.07
2018-04-08T10:48:26.766Z,21.14
2018-04-08T10:49:34.837Z,21.15
2018-04-08T10:50:42.892Z,21.33
2018-04-08T10:51:51.014Z,21.45
2018-04-08T10:52:59.039Z,21.59
2018-04-08T10:54:07.141Z,21.62
2018-04-08T10:55:15.190Z,21.66
2018-04-08T10:56:23.266Z,21.60
2018-04-08T10:57:31.345Z,21.68
2018-04-08T10:58:39.397Z,21.70
2018-04-08T10:59:47.497Z,21.77
2018-04-08T11:00:55.547Z,21.80
2018-04-08T11:02:03.622Z,21.88
2018-04-08T11:03:11.699Z,22.06
2018-04-08T11:04:19.755Z,22.14
2018-04-08T11:05:27.823Z,22.07
2018-04-08T11:06:35.897Z,22.12
2018-04-08T11:07:43.962Z,22.07
2018-04-08T11:08:52.052Z,22.21
2018-04-08T11:10:00.124Z,22.25
2018-04-08T11:11:08.181Z,22.25
2018-04-08T11:12:16.265Z,22.30
2018-04-08T11:13:24.325Z,22.26
2018-04-08T11:14:32.957Z,22.31
2018-04-08T11:15:40.486Z,22.33
2018-04-08T11:16:48.538Z,22.34
2018-04-08T11:17:56.637Z,22.34
2018-04-08T11:19:04.704Z,22.41
2018-04-08T11:20:12.743Z,22.38
2018-04-08T11:21:20.829Z,22.31
2018-04-08T11:22:29.374Z,22.31
2018-04-08T11:23:36.954Z,22.47
2018-04-08T11:24:45.688Z,22.58
2018-04-08T11:25:53.138Z,22.41
2018-04-08T11:27:01.157Z,22.36
2018-04-08T11:28:09.243Z,22.36
2018-04-08T11:29:18.732Z,22.36
2018-04-08T11:30:25.384Z,22.46
2018-04-08T11:31:33.489Z,22.52
2018-04-08T11:32:41.516Z,22.68
2018-04-08T11:33:49.620Z,22.67
2018-04-08T11:34:57.678Z,22.67
2018-04-08T11:36:05.759Z,22.80
2018-04-08T11:37:13.848Z,22.74
2018-04-08T11:38:21.934Z,22.84
2018-04-08T11:39:29.983Z,22.81
2018-04-08T11:40:38.069Z,22.61
2018-04-08T11:41:46.094Z,22.58
2018-04-08T11:42:54.168Z,22.56
2018-04-08T11:44:02.268Z,22.61
2018-04-08T11:45:10.306Z,22.63
2018-04-08T11:46:18.395Z,22.78
2018-04-08T11:47:26.462Z,22.91
2018-04-08T11:48:34.537Z,22.83
2018-04-08T11:49:42.642Z,22.96
2018-04-08T11:50:50.665Z,23.07
2018-04-08T11:51:58.738Z,23.08
2018-04-08T11:53:06.842Z,22.88
2018-04-08T11:54:14.908Z,22.89
2018-04-08T11:55:22.936Z,22.93
2018-04-08T11:56:31.037Z,22.96
2018-04-08T11:57:39.135Z,23.06
2018-04-08T11:58:47.188Z,23.08
2018-04-08T11:59:55.225Z,23.08
2018-04-08T12:01:03.307Z,23.11
2018-04-08T12:02:11.377Z,23.17
2018-04-08T12:03:19.477Z,23.21
2018-04-08T12:04:27.527Z,23.28
2018-04-08T12:05:35.627Z,23.14
2018-04-08T12:06:43.687Z,23.17
2018-04-08T12:07:51.756Z,23.25
2018-04-08T12:08:59.806Z,23.36
2018-04-08T12:10:07.903Z,23.39
2018-04-08T12:11:15.978Z,23.33
2018-04-08T12:12:24.031Z,23.34
2018-04-08T12:13:32.097Z,23.36
2018-04-08T12:14:40.204Z,23.20
2018-04-08T12:15:48.249Z,23.32
2018-04-08T12:16:56.365Z,23.32
2018-04-08T12:18:04.394Z,23.26
2018-04-08T12:19:12.507Z,23.37
2018-04-08T12:20:20.528Z,23.20
2018-04-08T12:21:28.598Z,23.20
2018-04-08T12:22:36.681Z,23.18
2018-04-08T12:23:44.782Z,23.16
2018-04-08T12:24:52.835Z,23.16
2018-04-08T12:26:00.899Z,22.88
2018-04-08T12:27:08.980Z,22.71
2018-04-08T12:28:17.060Z,22.61
2018-04-08T12:29:25.155Z,22.65
2018-04-08T12:30:33.177Z,22.78
2018-04-08T12:31:41.278Z,22.91
2018-04-08T12:32:49.666Z,22.93
2018-04-08T12:33:57.407Z,22.98
2018-04-08T12:35:05.479Z,22.81
2018-04-08T12:36:13.548Z,22.86
2018-04-08T12:37:21.640Z,22.59
2018-04-08T12:38:29.678Z,22.61
2018-04-08T12:39:37.763Z,22.80
2018-04-08T12:40:45.859Z,22.78
2018-04-08T12:41:53.921Z,22.88
2018-04-08T12:43:01.986Z,22.89
2018-04-08T12:44:10.048Z,22.96
2018-04-08T12:45:18.121Z,22.99
2018-04-08T12:46:26.217Z,23.06
2018-04-08T12:47:34.254Z,23.11
2018-04-08T12:48:42.362Z,23.07
2018-04-08T12:49:50.412Z,23.13
2018-04-08T12:50:58.487Z,23.02
2018-04-08T12:52:06.556Z,23.06
2018-04-08T12:53:14.632Z,23.06
2018-04-08T12:54:22.695Z,23.11
2018-04-08T12:55:30.768Z,23.08
2018-04-08T12:56:38.843Z,22.98
2018-04-08T12:57:46.909Z,22.93
2018-04-08T12:58:54.998Z,22.99
2018-04-08T13:00:03.074Z,22.98
2018-04-08T13:01:11.149Z,23.13
2018-04-08T13:02:19.206Z,23.18
2018-04-08T13:03:27.290Z,23.25
2018-04-08T13:04:35.361Z,23.16
2018-04-08T13:05:43.409Z,23.16
2018-04-08T13:06:51.497Z,23.14
2018-04-08T13:07:59.558Z,23.02
2018-04-08T13:09:07.630Z,23.07
2018-04-08T13:10:15.705Z,23.04
2018-04-08T13:11:23.786Z,23.07
2018-04-08T13:12:31.863Z,22.99
2018-04-08T13:13:39.927Z,23.04
2018-04-08T13:14:47.984Z,22.80
2018-04-08T13:15:56.106Z,22.89
2018-04-08T13:17:04.136Z,23.02
2018-04-08T13:18:12.211Z,23.07
2018-04-08T13:19:20.282Z,23.11
2018-04-08T13:20:28.364Z,23.20
2018-04-08T13:21:36.425Z,23.18
2018-04-08T13:22:44.484Z,23.21
2018-04-08T13:23:52.576Z,23.25
2018-04-08T13:25:00.633Z,23.14
2018-04-08T13:26:08.721Z,23.10
2018-04-08T13:27:16.808Z,23.16
2018-04-08T13:28:24.858Z,23.18
2018-04-08T13:29:32.936Z,23.01
2018-04-08T13:30:40.998Z,23.07
2018-04-08T13:31:49.083Z,23.04
2018-04-08T13:32:57.325Z,23.07
2018-04-08T13:34:05.237Z,23.11
2018-04-08T13:35:13.311Z,23.13
2018-04-08T13:36:21.370Z,22.96
2018-04-08T13:37:29.440Z,22.98
2018-04-08T13:38:37.516Z,22.93
2018-04-08T13:39:45.575Z,22.96
2018-04-08T13:40:53.665Z,22.84
2018-04-08T13:42:01.721Z,22.89
2018-04-08T13:43:09.781Z,22.88
2018-04-08T13:44:17.843Z,22.84
2018-04-08T13:45:25.943Z,22.80
2018-04-08T13:46:34.021Z,22.83
2018-04-08T13:47:42.099Z,22.78
2018-04-08T13:48:50.142Z,22.76
2018-04-08T13:49:58.226Z,22.67
2018-04-08T13:51:06.297Z,22.59
2018-04-08T13:52:14.367Z,22.53
2018-04-08T13:53:22.450Z,22.46
2018-04-08T13:54:30.563Z,22.47
2018-04-08T13:55:38.600Z,22.43
2018-04-08T13:56:46.683Z,22.44
2018-04-08T13:57:54.736Z,22.49
2018-04-08T13:59:02.806Z,22.49
2018-04-08T14:00:10.836Z,22.46
2018-04-08T14:01:18.945Z,22.51
2018-04-08T14:02:27.009Z,22.51
2018-04-08T14:03:35.087Z,22.53
2018-04-08T14:04:43.140Z,22.47
2018-04-08T14:05:51.217Z,22.59
2018-04-08T14:06:59.302Z,22.52
2018-04-08T14:08:07.364Z,22.65
2018-04-08T14:09:15.478Z,22.59
2018-04-08T14:10:23.518Z,22.68
2018-04-08T14:11:31.581Z,22.63
2018-04-08T14:12:39.654Z,22.78
2018-04-08T14:13:47.722Z,22.83
2018-04-08T14:14:55.809Z,22.84
2018-04-08T14:16:03.863Z,22.86
2018-04-08T14:17:11.926Z,22.96
2018-04-08T14:18:20.012Z,22.95
2018-04-08T14:19:28.092Z,22.95
2018-04-08T14:20:36.158Z,22.88
2018-04-08T14:21:44.236Z,22.88
2018-04-08T14:22:52.311Z,22.91
2018-04-08T14:24:00.373Z,23.04
2018-04-08T14:25:08.429Z,22.93
2018-04-08T14:26:16.514Z,22.84
2018-04-08T14:27:24.585Z,22.84
2018-04-08T14:28:32.655Z,22.98
2018-04-08T14:29:40.731Z,22.95
2018-04-08T14:30:48.808Z,22.91
2018-04-08T14:31:56.862Z,22.89
2018-04-08T14:33:04.966Z,23.06
2018-04-08T14:34:13.011Z,22.91
2018-04-08T14:35:21.083Z,22.99
2018-04-08T14:36:29.151Z,22.86
2018-04-08T14:37:37.244Z,22.74
2018-04-08T14:38:45.301Z,22.67
2018-04-08T14:39:53.372Z,22.58
2018-04-08T14:41:01.433Z,22.55
2018-04-08T14:42:09.509Z,22.52
2018-04-08T14:43:17.594Z,22.53
2018-04-08T14:44:25.664Z,22.53
2018-04-08T14:45:33.746Z,22.61
2018-04-08T14:46:41.855Z,22.58
2018-04-08T14:47:49.881Z,22.58
2018-04-08T14:48:57.936Z,22.56
2018-04-08T14:50:06.008Z,22.65
2018-04-08T14:51:14.088Z,22.59
2018-04-08T14:52:22.162Z,22.49
2018-04-08T14:53:30.227Z,22.52
2018-04-08T14:54:38.317Z,22.53
2018-04-08T14:55:46.388Z,22.55